Time;durP1;ratioP1;P1;durP2;ratioP2;P2;SDS_P1;SDS_P2;PMS_P1;PMS_P2;Temp;Humidity;BMP_temperature;BMP_pressure;BME280_temperature;BME280_humidity;BME280_pressure;Samples;Min_cycle;Max_cycle;Signal;HPM_P1;HPM_P2
2023/03/18 00:01:23;;;;;;;7.05;4.35;;;10.70;98.70;;;;;;5050352;28;20025;-39
2023/03/18 00:03:49;;;;;;;8.18;4.05;;;10.70;98.10;;;;;;5050603;28;20079;-39
2023/03/18 00:06:17;;;;;;;7.10;4.07;;;10.70;98.40;;;;;;5048766;28;20029;-39
2023/03/18 00:08:45;;;;;;;4.88;3.28;;;10.70;99.90;;;;;;5049821;28;20028;-40
2023/03/18 00:11:12;;;;;;;6.60;3.95;;;10.60;99.90;;;;;;5050177;28;20017;-40
2023/03/18 00:13:40;;;;;;;5.78;4.00;;;10.50;99.90;;;;;;5050071;28;20098;-40
2023/03/18 00:16:06;;;;;;;6.07;4.00;;;10.60;99.90;;;;;;5049534;28;20485;-39
2023/03/18 00:18:33;;;;;;;8.02;4.45;;;10.50;99.90;;;;;;5050519;28;20025;-40
2023/03/18 00:20:59;;;;;;;13.00;4.85;;;10.50;99.90;;;;;;5049027;28;20021;-40
2023/03/18 00:23:26;;;;;;;10.30;4.88;;;10.50;99.90;;;;;;5050143;28;20013;-39
2023/03/18 00:25:55;;;;;;;7.93;4.90;;;10.40;99.90;;;;;;5049667;28;20024;-39
2023/03/18 00:28:21;;;;;;;6.93;4.28;;;10.40;99.90;;;;;;5049631;28;20021;-39
2023/03/18 00:30:48;;;;;;;8.80;4.38;;;10.50;99.90;;;;;;5049955;28;20100;-40
2023/03/18 00:33:14;;;;;;;6.78;4.28;;;10.40;99.90;;;;;;5050038;28;20013;-40
2023/03/18 00:35:40;;;;;;;8.25;4.18;;;10.40;99.90;;;;;;5049316;28;20025;-39
2023/03/18 00:38:07;;;;;;;7.47;4.55;;;10.40;99.90;;;;;;5049857;28;20044;-39
2023/03/18 00:40:52;;;;;;;7.35;4.63;;;10.40;99.90;;;;;;5049916;28;20055;-39
2023/03/18 00:43:28;;;;;;;9.05;4.60;;;10.40;99.90;;;;;;5049128;28;20020;-39
2023/03/18 00:45:54;;;;;;;8.27;4.68;;;10.30;99.90;;;;;;5049208;28;20052;-39
2023/03/18 00:48:20;;;;;;;8.35;4.55;;;10.30;99.90;;;;;;5049811;28;20047;-39
2023/03/18 00:50:46;;;;;;;6.50;4.60;;;10.30;99.90;;;;;;5049748;28;20017;-39
2023/03/18 00:53:12;;;;;;;13.75;5.07;;;10.30;99.90;;;;;;5049717;28;20025;-39
2023/03/18 00:55:38;;;;;;;7.07;4.43;;;10.30;99.90;;;;;;5048776;28;20017;-39
2023/03/18 00:58:03;;;;;;;11.20;4.47;;;10.20;99.90;;;;;;5049368;28;20044;-39
2023/03/18 01:00:29;;;;;;;7.88;4.03;;;10.30;99.90;;;;;;5049452;28;20060;-39
2023/03/18 01:02:55;;;;;;;7.50;4.55;;;10.30;99.90;;;;;;5049368;28;20545;-39
2023/03/18 01:05:21;;;;;;;7.30;4.10;;;10.40;99.90;;;;;;5049087;28;20047;-39
2023/03/18 01:07:48;;;;;;;7.47;3.90;;;10.50;99.50;;;;;;5049391;28;20024;-39
2023/03/18 01:10:14;;;;;;;8.60;4.22;;;10.60;98.20;;;;;;5049762;28;20021;-39
2023/03/18 01:12:41;;;;;;;7.25;3.45;;;10.80;98.00;;;;;;5049311;28;20364;-39
2023/03/18 01:15:09;;;;;;;8.35;3.80;;;10.90;97.50;;;;;;5048970;28;20025;-39
2023/03/18 01:17:34;;;;;;;6.65;3.53;;;10.90;97.30;;;;;;5047680;28;20390;-39
2023/03/18 01:20:01;;;;;;;4.97;3.42;;;10.90;97.10;;;;;;5048942;28;20028;-39
2023/03/18 01:22:28;;;;;;;7.93;3.60;;;11.00;96.80;;;;;;5049021;28;20017;-39
2023/03/18 01:24:54;;;;;;;6.18;3.17;;;11.10;96.50;;;;;;5048733;28;20081;-39
2023/03/18 01:27:20;;;;;;;4.55;3.28;;;11.20;96.30;;;;;;5047842;28;20032;-40
2023/03/18 01:29:46;;;;;;;3.95;2.72;;;11.20;95.90;;;;;;5049136;28;20554;-39
2023/03/18 01:32:12;;;;;;;5.53;3.42;;;11.20;95.90;;;;;;5040624;28;20474;-39
2023/03/18 01:34:37;;;;;;;5.95;2.90;;;11.40;95.20;;;;;;5048859;28;20028;-39
2023/03/18 01:37:04;;;;;;;5.82;2.50;;;11.50;94.70;;;;;;5049156;28;20029;-39
2023/03/18 01:39:29;;;;;;;6.28;2.92;;;11.60;94.50;;;;;;5049121;28;20099;-39
2023/03/18 01:41:55;;;;;;;8.32;3.00;;;11.60;94.50;;;;;;5048326;28;20029;-39
2023/03/18 01:44:24;;;;;;;4.90;3.15;;;11.60;94.10;;;;;;5048462;28;20280;-39
2023/03/18 01:46:51;;;;;;;5.40;3.10;;;11.70;93.90;;;;;;5048509;28;20108;-39
2023/03/18 01:49:20;;;;;;;5.97;3.22;;;11.80;93.90;;;;;;5047358;28;20024;-39
2023/03/18 01:51:57;;;;;;;6.57;3.28;;;11.80;93.80;;;;;;5048467;28;20055;-39
2023/03/18 01:54:25;;;;;;;3.53;2.42;;;11.80;93.60;;;;;;5048535;28;20470;-39
2023/03/18 01:56:52;;;;;;;5.57;3.30;;;11.80;93.70;;;;;;5048219;28;20027;-39
2023/03/18 01:59:21;;;;;;;5.93;3.05;;;11.70;93.70;;;;;;5048592;28;20029;-39
2023/03/18 02:01:49;;;;;;;7.03;3.20;;;11.80;93.60;;;;;;5048734;28;20013;-39
2023/03/18 02:04:15;;;;;;;3.70;2.92;;;11.80;93.50;;;;;;5048652;28;20021;-40
2023/03/18 02:06:41;;;;;;;8.63;2.80;;;11.80;93.50;;;;;;5047041;28;20031;-39
2023/03/18 02:09:08;;;;;;;6.40;2.75;;;11.80;93.50;;;;;;5048358;28;20017;-39
2023/03/18 02:11:38;;;;;;;7.03;2.85;;;11.80;93.60;;;;;;5047634;28;20080;-39
2023/03/18 02:14:05;;;;;;;4.38;2.45;;;11.80;93.70;;;;;;5047276;28;20533;-39
2023/03/18 02:16:40;;;;;;;6.22;3.17;;;11.80;93.40;;;;;;5048017;28;20014;-39
2023/03/18 02:19:38;;;;;;;3.72;2.65;;;11.80;93.70;;;;;;5048489;28;20545;-39
2023/03/18 02:22:15;;;;;;;5.97;3.13;;;12.00;93.30;;;;;;5048391;28;20037;-39
2023/03/18 02:24:53;;;;;;;7.43;2.70;;;12.00;93.20;;;;;;5048163;28;20013;-39
2023/03/18 02:27:19;;;;;;;5.65;2.58;;;12.00;93.10;;;;;;5048467;28;20040;-39
2023/03/18 02:29:47;;;;;;;5.13;2.70;;;12.00;93.30;;;;;;5047900;28;20017;-39
2023/03/18 02:32:14;;;;;;;4.45;2.58;;;12.00;93.40;;;;;;5048358;28;20105;-39
2023/03/18 02:34:41;;;;;;;4.63;2.63;;;12.00;93.30;;;;;;5047768;28;20017;-39
2023/03/18 02:37:07;;;;;;;4.43;2.65;;;12.00;93.20;;;;;;5048695;28;20021;-39
2023/03/18 02:39:34;;;;;;;6.88;2.45;;;12.10;93.10;;;;;;5052184;28;20024;-39
2023/03/18 02:42:00;;;;;;;7.13;2.85;;;12.10;93.30;;;;;;5050440;28;20690;-39
2023/03/18 02:44:25;;;;;;;5.80;2.72;;;12.10;93.00;;;;;;5051693;28;20048;-39
2023/03/18 02:47:02;;;;;;;5.63;2.72;;;12.10;93.10;;;;;;5051726;28;20032;-39
2023/03/18 02:49:29;;;;;;;4.72;2.63;;;12.20;92.90;;;;;;5051851;28;20017;-39
2023/03/18 02:51:55;;;;;;;5.50;3.03;;;12.10;93.10;;;;;;5050972;28;20036;-39
2023/03/18 02:54:26;;;;;;;5.65;2.83;;;12.20;93.00;;;;;;5050306;28;20462;-39
2023/03/18 02:56:52;;;;;;;3.35;2.60;;;12.10;93.20;;;;;;5051424;28;20020;-39
2023/03/18 02:59:19;;;;;;;4.50;2.53;;;12.20;93.10;;;;;;5051581;28;20028;-39
2023/03/18 03:01:46;;;;;;;3.08;2.47;;;12.10;93.30;;;;;;5051620;28;20017;-39
2023/03/18 03:04:13;;;;;;;4.55;2.63;;;12.10;93.40;;;;;;5051292;28;20095;-37
2023/03/18 03:06:40;;;;;;;6.05;2.67;;;12.10;93.40;;;;;;5051465;28;20017;-38
2023/03/18 03:09:06;;;;;;;5.38;2.67;;;12.10;93.30;;;;;;5051918;28;20032;-38
2023/03/18 03:11:32;;;;;;;3.83;2.40;;;12.20;93.20;;;;;;5050672;28;20113;-38
2023/03/18 03:13:58;;;;;;;4.63;2.65;;;12.10;93.10;;;;;;5052313;28;20096;-38
2023/03/18 03:16:23;;;;;;;9.98;3.10;;;12.10;93.20;;;;;;5051069;28;20024;-38
2023/03/18 03:18:49;;;;;;;4.88;2.60;;;12.20;93.20;;;;;;5051381;28;20029;-38
2023/03/18 03:21:15;;;;;;;4.90;2.40;;;12.10;93.20;;;;;;5051070;28;20074;-38
2023/03/18 03:23:42;;;;;;;4.72;2.90;;;12.10;93.30;;;;;;5051346;28;20553;-38
2023/03/18 03:26:07;;;;;;;6.43;2.70;;;12.10;93.40;;;;;;5049780;28;20096;-38
2023/03/18 03:28:33;;;;;;;4.97;2.75;;;12.10;93.30;;;;;;5051281;28;20119;-38
2023/03/18 03:30:59;;;;;;;7.15;3.30;;;12.10;93.40;;;;;;5050974;28;20013;-38
2023/03/18 03:33:26;;;;;;;5.57;2.65;;;12.10;93.50;;;;;;5049929;28;20013;-38
2023/03/18 03:35:52;;;;;;;6.60;3.45;;;12.10;93.60;;;;;;5050634;28;20017;-38
2023/03/18 03:38:18;;;;;;;7.82;2.28;;;12.10;93.70;;;;;;5051341;28;20467;-37
2023/03/18 03:40:45;;;;;;;4.05;2.50;;;12.10;93.90;;;;;;5051464;28;20063;-38
2023/03/18 03:43:13;;;;;;;6.22;2.45;;;12.00;93.90;;;;;;5050128;28;20048;-38
2023/03/18 03:45:40;;;;;;;6.28;2.58;;;12.00;94.20;;;;;;5050405;28;20029;-38
2023/03/18 03:48:07;;;;;;;4.43;2.28;;;12.00;94.10;;;;;;5050544;28;20601;-38
2023/03/18 03:50:32;;;;;;;4.95;2.75;;;11.90;94.30;;;;;;5048393;28;20173;-38
2023/03/18 03:52:58;;;;;;;6.85;2.38;;;11.90;94.50;;;;;;5050508;28;20021;-38
2023/03/18 03:55:24;;;;;;;6.63;3.35;;;11.90;94.60;;;;;;5050618;28;20056;-38
2023/03/18 03:57:50;;;;;;;10.52;2.80;;;11.90;94.60;;;;;;5050924;28;20085;-38
2023/03/18 04:00:19;;;;;;;6.95;2.85;;;11.90;94.70;;;;;;5050499;28;20025;-38
2023/03/18 04:02:45;;;;;;;5.38;2.83;;;11.90;94.80;;;;;;5050802;28;20028;-38
2023/03/18 04:05:13;;;;;;;6.03;2.65;;;11.90;95.10;;;;;;5050101;28;20410;-38
2023/03/18 04:07:40;;;;;;;7.50;3.10;;;11.90;95.00;;;;;;5049049;28;20025;-38
2023/03/18 04:10:08;;;;;;;6.10;3.00;;;11.90;95.10;;;;;;5050201;28;20083;-38
2023/03/18 04:12:34;;;;;;;7.95;3.33;;;11.90;95.10;;;;;;5048983;28;20040;-38
2023/03/18 04:15:00;;;;;;;5.85;2.88;;;11.90;95.20;;;;;;5046956;28;20108;-38
2023/03/18 04:17:25;;;;;;;7.43;3.40;;;11.90;95.30;;;;;;5044051;28;20171;-37
2023/03/18 04:19:51;;;;;;;6.45;3.03;;;11.90;95.30;;;;;;5042370;28;20029;-38
2023/03/18 04:22:17;;;;;;;8.27;3.30;;;11.90;95.40;;;;;;5059300;28;20048;-38
2023/03/18 04:24:43;;;;;;;7.43;3.47;;;12.00;95.50;;;;;;5047702;28;20108;-38
2023/03/18 04:27:10;;;;;;;9.07;3.40;;;12.00;95.60;;;;;;5050245;28;20079;-38
2023/03/18 04:29:36;;;;;;;8.35;3.67;;;12.00;95.70;;;;;;5050327;28;20017;-38
2023/03/18 04:32:02;;;;;;;7.93;3.33;;;12.00;95.90;;;;;;5048984;28;20364;-38
2023/03/18 04:34:27;;;;;;;7.55;3.70;;;12.00;95.90;;;;;;5048585;28;20075;-39
2023/03/18 04:36:54;;;;;;;6.72;4.00;;;12.00;96.10;;;;;;5048480;28;20300;-38
2023/03/18 04:39:20;;;;;;;8.90;4.07;;;12.00;96.30;;;;;;5049889;28;20021;-38
2023/03/18 04:41:46;;;;;;;8.60;3.88;;;12.00;96.50;;;;;;5049653;28;20021;-38
2023/03/18 04:44:12;;;;;;;11.23;3.70;;;12.00;96.80;;;;;;5049496;28;20325;-38
2023/03/18 04:46:38;;;;;;;7.60;3.45;;;12.00;96.70;;;;;;5049794;28;20563;-38
2023/03/18 04:49:03;;;;;;;7.22;3.20;;;12.10;96.70;;;;;;5049960;28;20104;-38
2023/03/18 04:51:29;;;;;;;7.43;3.40;;;12.00;96.80;;;;;;5048061;28;20052;-38
2023/03/18 04:53:54;;;;;;;7.35;3.60;;;12.00;97.30;;;;;;5049496;28;20055;-38
2023/03/18 04:56:20;;;;;;;9.48;3.63;;;12.00;97.50;;;;;;5048774;28;20104;-38
2023/03/18 04:58:46;;;;;;;8.27;3.20;;;12.00;97.60;;;;;;5049603;28;20048;-38
2023/03/18 05:01:12;;;;;;;17.52;3.75;;;11.90;97.80;;;;;;5049313;28;20021;-38
2023/03/18 05:03:41;;;;;;;8.65;3.35;;;11.90;98.10;;;;;;5049319;28;20025;-38
2023/03/18 05:06:08;;;;;;;7.47;3.55;;;11.90;98.60;;;;;;5047309;28;20025;-38
2023/03/18 05:08:33;;;;;;;6.57;3.20;;;11.80;98.90;;;;;;5045597;28;20021;-38
2023/03/18 05:10:59;;;;;;;8.77;3.53;;;11.80;99.20;;;;;;5046788;28;20048;-38
2023/03/18 05:13:25;;;;;;;9.90;3.25;;;11.80;99.60;;;;;;5043028;28;20033;-38
2023/03/18 05:15:50;;;;;;;7.03;3.17;;;11.70;99.90;;;;;;5048451;28;20044;-37
2023/03/18 05:18:16;;;;;;;5.80;3.55;;;11.70;99.90;;;;;;5048969;28;20025;-38
2023/03/18 05:20:42;;;;;;;6.22;3.25;;;11.70;99.90;;;;;;5049053;28;20481;-37
2023/03/18 05:23:08;;;;;;;7.25;3.50;;;11.70;99.90;;;;;;5048998;28;20025;-38
2023/03/18 05:25:33;;;;;;;9.20;3.53;;;11.60;99.90;;;;;;5048443;28;20025;-38
2023/03/18 05:27:59;;;;;;;8.77;3.35;;;11.70;99.90;;;;;;5048864;28;20025;-38
2023/03/18 05:30:26;;;;;;;6.75;3.50;;;11.60;99.90;;;;;;5048861;28;20021;-38
2023/03/18 05:32:51;;;;;;;11.80;4.00;;;11.50;99.90;;;;;;5049056;28;20544;-38
2023/03/18 05:35:18;;;;;;;8.98;4.65;;;11.60;99.90;;;;;;5046739;28;20021;-39
2023/03/18 05:37:43;;;;;;;9.82;4.30;;;11.60;99.90;;;;;;5048947;28;20276;-39
2023/03/18 05:40:10;;;;;;;6.35;3.53;;;11.60;99.90;;;;;;5048297;28;20045;-39
2023/03/18 05:42:39;;;;;;;8.48;4.28;;;11.60;99.90;;;;;;5048596;28;20017;-39
2023/03/18 05:45:06;;;;;;;9.98;3.83;;;11.50;99.90;;;;;;5053994;28;20021;-38
2023/03/18 05:47:32;;;;;;;8.52;3.28;;;11.60;99.90;;;;;;5048429;28;20029;-39
2023/03/18 05:49:57;;;;;;;5.72;3.75;;;11.50;99.90;;;;;;5048842;28;20029;-39
2023/03/18 05:52:23;;;;;;;8.13;3.90;;;11.50;99.90;;;;;;5046889;28;20014;-39
2023/03/18 05:54:49;;;;;;;6.95;3.67;;;11.50;99.90;;;;;;5048068;28;20039;-39
2023/03/18 05:57:15;;;;;;;8.68;3.85;;;11.50;99.90;;;;;;5048764;28;20020;-39
2023/03/18 05:59:40;;;;;;;5.90;3.92;;;11.50;99.90;;;;;;5048563;28;20025;-38
2023/03/18 06:02:06;;;;;;;13.05;3.83;;;11.50;99.90;;;;;;5048388;28;20075;-39
2023/03/18 06:04:31;;;;;;;7.80;4.32;;;11.50;99.90;;;;;;5048377;28;20474;-38
2023/03/18 06:06:57;;;;;;;7.47;3.95;;;11.50;99.90;;;;;;5048182;28;20601;-38
2023/03/18 06:09:24;;;;;;;5.40;3.67;;;11.40;99.90;;;;;;5048410;28;20032;-38
2023/03/18 06:11:50;;;;;;;7.63;4.22;;;11.50;99.90;;;;;;5047196;28;20024;-38
2023/03/18 06:14:17;;;;;;;8.25;3.42;;;11.50;99.90;;;;;;5048154;28;20470;-38
2023/03/18 06:16:44;;;;;;;7.55;3.92;;;11.50;99.90;;;;;;5048004;28;20010;-38
2023/03/18 06:19:10;;;;;;;6.78;3.72;;;11.60;99.90;;;;;;5048202;28;20032;-38
2023/03/18 06:21:37;;;;;;;12.18;3.85;;;11.60;99.90;;;;;;5048735;28;20013;-38
2023/03/18 06:24:03;;;;;;;6.47;3.70;;;11.50;99.90;;;;;;5048492;28;20036;-38
2023/03/18 06:26:28;;;;;;;6.25;3.15;;;11.50;99.90;;;;;;5047723;28;20052;-38
2023/03/18 06:28:55;;;;;;;16.17;4.25;;;11.50;99.90;;;;;;5048157;28;20506;-38
2023/03/18 06:31:21;;;;;;;6.20;3.75;;;11.50;99.90;;;;;;5046960;28;20021;-38
2023/03/18 06:33:46;;;;;;;7.50;3.80;;;11.50;99.90;;;;;;5048349;28;20405;-38
2023/03/18 06:36:15;;;;;;;6.38;2.90;;;11.50;99.90;;;;;;5047371;28;20574;-38
2023/03/18 06:38:41;;;;;;;8.95;3.97;;;11.50;99.90;;;;;;5041523;28;20072;-39
2023/03/18 06:41:07;;;;;;;11.90;3.70;;;11.60;99.90;;;;;;5070112;28;20040;-39
2023/03/18 06:43:33;;;;;;;8.15;3.20;;;11.60;99.90;;;;;;5048131;28;20027;-38
2023/03/18 06:45:59;;;;;;;6.80;4.07;;;11.60;99.90;;;;;;5047397;28;20103;-38
2023/03/18 06:48:24;;;;;;;7.00;3.60;;;11.60;99.90;;;;;;5063167;28;20025;-38
2023/03/18 06:50:49;;;;;;;12.23;4.13;;;11.60;99.90;;;;;;5047911;28;20013;-39
2023/03/18 06:53:16;;;;;;;6.40;3.33;;;11.60;99.90;;;;;;5048071;28;20382;-39
2023/03/18 06:55:42;;;;;;;9.68;4.60;;;11.70;99.90;;;;;;5047567;28;20017;-39
2023/03/18 06:58:07;;;;;;;9.18;3.45;;;11.70;99.90;;;;;;5048044;28;20028;-39
2023/03/18 07:00:34;;;;;;;9.02;3.38;;;11.70;99.90;;;;;;5047883;28;20025;-39
2023/03/18 07:03:00;;;;;;;7.85;3.55;;;11.70;99.90;;;;;;5047018;28;20038;-38
2023/03/18 07:05:26;;;;;;;7.32;3.70;;;11.70;99.90;;;;;;5047748;28;20025;-38
2023/03/18 07:07:53;;;;;;;17.40;3.83;;;11.80;99.90;;;;;;5046850;28;20048;-38
2023/03/18 07:10:21;;;;;;;14.27;3.80;;;11.80;99.90;;;;;;5047767;28;20506;-38
2023/03/18 07:12:49;;;;;;;5.65;3.28;;;11.90;99.90;;;;;;5047887;28;20391;-38
2023/03/18 07:15:15;;;;;;;8.80;3.30;;;11.90;99.90;;;;;;5044440;28;20035;-39
2023/03/18 07:17:41;;;;;;;7.63;3.45;;;12.00;99.90;;;;;;5046228;28;20025;-38
2023/03/18 07:20:07;;;;;;;8.32;3.35;;;12.10;99.90;;;;;;5046610;28;20588;-39
2023/03/18 07:22:32;;;;;;;6.60;3.60;;;12.20;99.90;;;;;;5047042;28;20088;-39
2023/03/18 07:24:58;;;;;;;9.15;3.70;;;12.30;99.90;;;;;;5048682;28;20029;-39
2023/03/18 07:27:24;;;;;;;12.23;4.35;;;12.50;99.90;;;;;;5047533;28;20024;-39
2023/03/18 07:29:49;;;;;;;10.15;4.05;;;12.70;99.90;;;;;;5048327;28;20033;-38
2023/03/18 07:32:15;;;;;;;8.52;4.32;;;12.80;99.90;;;;;;5050725;28;20013;-38
2023/03/18 07:34:41;;;;;;;11.05;4.13;;;12.80;99.90;;;;;;5050172;28;20005;-38
2023/03/18 07:37:07;;;;;;;8.00;3.33;;;12.90;99.90;;;;;;5050613;28;20432;-39
2023/03/18 07:39:33;;;;;;;7.03;3.45;;;13.00;99.90;;;;;;5050577;28;20025;-39
2023/03/18 07:41:59;;;;;;;7.93;3.40;;;13.00;99.90;;;;;;5046347;28;20048;-39
2023/03/18 07:44:25;;;;;;;5.97;2.97;;;13.10;99.90;;;;;;5049965;28;20032;-39
2023/03/18 07:46:50;;;;;;;7.07;3.13;;;13.10;99.90;;;;;;5044264;28;20048;-39
2023/03/18 07:49:16;;;;;;;7.68;3.10;;;13.20;99.90;;;;;;5046996;28;20022;-39
2023/03/18 07:51:42;;;;;;;9.02;3.65;;;13.30;99.90;;;;;;5044697;28;20068;-39
2023/03/18 07:54:07;;;;;;;8.88;3.45;;;13.40;99.90;;;;;;5048692;28;20032;-39
2023/03/18 07:56:33;;;;;;;7.32;3.40;;;13.50;99.90;;;;;;5049762;28;20017;-39
2023/03/18 07:58:59;;;;;;;8.57;3.55;;;13.50;99.90;;;;;;5049068;28;20021;-39
2023/03/18 08:01:24;;;;;;;9.85;3.65;;;13.50;99.90;;;;;;5050591;28;20513;-39
2023/03/18 08:03:50;;;;;;;9.02;4.32;;;13.50;99.90;;;;;;5050386;28;20394;-39
2023/03/18 08:06:16;;;;;;;6.20;3.67;;;13.60;99.90;;;;;;5049668;28;20025;-39
2023/03/18 08:08:42;;;;;;;12.95;3.92;;;13.60;99.90;;;;;;5050596;28;20413;-39
2023/03/18 08:11:08;;;;;;;12.23;3.90;;;13.50;99.90;;;;;;5047485;28;20104;-39
2023/03/18 08:13:35;;;;;;;4.47;3.35;;;13.50;99.90;;;;;;5049425;28;20158;-39
2023/03/18 08:16:01;;;;;;;6.40;3.22;;;13.60;99.90;;;;;;5048597;28;20021;-39
2023/03/18 08:18:26;;;;;;;8.18;3.75;;;13.80;99.90;;;;;;5050028;28;20031;-39
2023/03/18 08:20:52;;;;;;;9.25;3.70;;;13.90;99.90;;;;;;5050245;28;20029;-38
2023/03/18 08:23:18;;;;;;;5.57;3.53;;;14.10;99.90;;;;;;5050266;28;20017;-38
2023/03/18 08:25:48;;;;;;;9.90;3.17;;;14.00;99.90;;;;;;5047734;28;20028;-38
2023/03/18 08:28:14;;;;;;;7.53;3.28;;;14.10;99.90;;;;;;5049633;28;20100;-38
2023/03/18 08:30:40;;;;;;;5.03;3.25;;;14.20;99.90;;;;;;5049902;28;20112;-38
2023/03/18 08:33:05;;;;;;;15.10;3.58;;;14.20;99.90;;;;;;5049481;28;20054;-38
2023/03/18 08:35:31;;;;;;;5.93;3.20;;;14.10;99.90;;;;;;5048281;28;20025;-38
2023/03/18 08:37:56;;;;;;;8.60;3.33;;;14.20;99.90;;;;;;5049809;28;20028;-38
2023/03/18 08:40:22;;;;;;;5.88;3.00;;;14.20;99.90;;;;;;5047923;28;20021;-38
2023/03/18 08:42:48;;;;;;;8.65;3.15;;;14.20;99.90;;;;;;5049133;28;20024;-38
2023/03/18 08:45:14;;;;;;;7.00;2.90;;;14.30;99.90;;;;;;5049239;28;20049;-38
2023/03/18 08:47:40;;;;;;;5.82;3.22;;;14.50;99.90;;;;;;5048136;28;20033;-38
2023/03/18 08:50:07;;;;;;;11.55;3.65;;;14.60;99.90;;;;;;5049222;28;20497;-38
2023/03/18 08:52:33;;;;;;;11.30;4.57;;;14.90;99.90;;;;;;5041117;28;20023;-38
2023/03/18 08:54:59;;;;;;;9.95;3.35;;;15.00;99.90;;;;;;5049180;28;20025;-38
2023/03/18 08:57:26;;;;;;;10.27;4.00;;;14.90;99.90;;;;;;5049313;28;20056;-38
2023/03/18 08:59:52;;;;;;;7.32;3.42;;;15.00;99.90;;;;;;5049480;28;20025;-38
2023/03/18 09:02:18;;;;;;;7.25;3.03;;;15.30;99.90;;;;;;5049081;28;20397;-38
2023/03/18 09:04:44;;;;;;;7.53;3.30;;;15.60;99.90;;;;;;5049066;28;20020;-38
2023/03/18 09:07:11;;;;;;;9.50;2.88;;;15.90;99.90;;;;;;5049179;28;20036;-38
2023/03/18 09:09:37;;;;;;;8.20;3.17;;;16.50;99.90;;;;;;5049058;28;20025;-38
2023/03/18 09:12:04;;;;;;;7.00;2.78;;;16.60;99.90;;;;;;5048168;28;20021;-38
2023/03/18 09:14:31;;;;;;;6.03;2.80;;;16.90;99.90;;;;;;5047967;28;20421;-38
2023/03/18 09:16:58;;;;;;;6.32;2.78;;;17.00;99.90;;;;;;5048300;28;20017;-38
2023/03/18 09:19:24;;;;;;;6.30;3.17;;;17.00;99.90;;;;;;5048702;28;20032;-38
2023/03/18 09:21:50;;;;;;;6.35;2.95;;;17.20;99.90;;;;;;5049306;28;20044;-38
2023/03/18 09:24:16;;;;;;;4.90;2.03;;;18.20;98.90;;;;;;5048608;28;20029;-38
2023/03/18 09:26:42;;;;;;;5.72;2.72;;;19.20;96.40;;;;;;5048555;28;20313;-38
2023/03/18 09:29:08;;;;;;;5.65;2.63;;;20.10;94.30;;;;;;5048258;28;20017;-39
2023/03/18 09:31:33;;;;;;;4.80;2.70;;;21.40;91.60;;;;;;5048305;28;20025;-38
2023/03/18 09:33:59;;;;;;;4.22;2.55;;;22.60;87.50;;;;;;5048430;28;20044;-38
2023/03/18 09:36:26;;;;;;;6.93;2.65;;;23.00;84.80;;;;;;5048061;28;20078;-38
2023/03/18 09:38:51;;;;;;;5.53;3.00;;;23.10;81.00;;;;;;5048249;28;20548;-38
2023/03/18 09:41:47;;;;;;;5.45;3.33;;;22.70;82.60;;;;;;5048268;28;20037;-39
2023/03/18 09:44:22;;;;;;;7.90;3.53;;;23.80;79.70;;;;;;5047202;28;20513;-38
2023/03/18 09:47:20;;;;;;;4.82;3.10;;;23.70;77.10;;;;;;5046295;28;20028;-39
2023/03/18 09:50:20;;;;;;;4.55;3.10;;;24.50;75.60;;;;;;5048787;28;20100;-41
2023/03/18 09:53:00;;;;;;;4.72;2.55;;;24.40;73.00;;;;;;5046751;28;20259;-40
2023/03/18 09:55:34;;;;;;;;;;;26.00;71.10;;;;;;5047852;28;20631;-40
2023/03/18 09:58:02;;;;;;;7.25;3.80;;;26.10;70.40;;;;;;5047641;28;19961;-40
2023/03/18 10:00:35;;;;;;;6.55;3.22;;;26.90;65.70;;;;;;5047832;28;20033;-40
2023/03/18 10:03:13;;;;;;;6.60;3.30;;;27.60;65.20;;;;;;5048000;28;20021;-42
2023/03/18 10:06:01;;;;;;;6.28;3.17;;;27.90;64.10;;;;;;5048264;28;20093;-39
2023/03/18 10:08:45;;;;;;;5.43;3.50;;;28.10;61.60;;;;;;5046848;28;20036;-40
2023/03/18 10:11:41;;;;;;;6.78;3.35;;;27.90;62.30;;;;;;5048606;28;20489;-40
2023/03/18 10:14:25;;;;;;;6.68;4.05;;;26.20;64.30;;;;;;5038575;28;20052;-39
2023/03/18 10:17:21;;;;;;;5.88;3.47;;;24.20;67.70;;;;;;5048233;28;20013;-39
2023/03/18 10:19:56;;;;;;;6.80;4.40;;;23.60;69.90;;;;;;5039603;28;20024;-39
2023/03/18 10:22:50;;;;;;;9.85;4.72;;;22.30;72.80;;;;;;5047728;28;20017;-38
2023/03/18 10:25:32;;;;;;;11.23;5.38;;;21.30;75.40;;;;;;5046347;28;20554;-38
2023/03/18 10:28:21;;;;;;;10.30;5.18;;;20.30;77.70;;;;;;5046454;28;20036;-38
2023/03/18 10:31:22;;;;;;;9.40;5.03;;;19.10;82.50;;;;;;5043194;28;20025;-38
2023/03/18 10:33:58;;;;;;;9.15;4.80;;;18.70;85.20;;;;;;5054740;28;20022;-39
2023/03/18 10:36:36;;;;;;;10.10;5.45;;;18.20;87.90;;;;;;5040334;28;20083;-39
2023/03/18 10:39:02;;;;;;;11.13;6.05;;;18.00;89.40;;;;;;5039629;28;20526;-39
2023/03/18 10:41:36;;;;;;;9.23;5.90;;;17.70;90.50;;;;;;5042169;28;20100;-39
2023/03/18 10:44:32;;;;;;;9.75;5.20;;;17.40;91.30;;;;;;5069029;28;20682;-39
2023/03/18 10:47:03;;;;;;;8.32;5.30;;;17.40;92.00;;;;;;5029327;28;20116;-39
2023/03/18 10:49:34;;;;;;;13.20;5.65;;;18.00;91.80;;;;;;5047844;28;20340;-39
2023/03/18 10:52:09;;;;;;;12.27;6.38;;;18.30;90.80;;;;;;5062243;28;20099;-39
2023/03/18 10:54:45;;;;;;;10.50;6.50;;;18.20;91.20;;;;;;5047552;28;20023;-39
2023/03/18 10:57:15;;;;;;;8.65;6.53;;;18.60;90.90;;;;;;5040390;28;20036;-39
2023/03/18 10:59:44;;;;;;;8.32;5.82;;;19.30;89.70;;;;;;5049750;28;20112;-38
2023/03/18 11:02:29;;;;;;;12.68;7.00;;;21.20;83.70;;;;;;5051347;28;20110;-39
2023/03/18 11:05:03;;;;;;;12.02;6.38;;;22.40;77.70;;;;;;5051195;28;20401;-39
2023/03/18 11:07:30;;;;;;;7.72;5.25;;;23.20;75.10;;;;;;5051508;28;20029;-44
2023/03/18 11:10:14;;;;;;;7.88;5.35;;;22.90;75.60;;;;;;5051818;28;20469;-39
2023/03/18 11:12:39;;;;;;;5.97;4.60;;;21.50;77.40;;;;;;5051633;28;20013;-39
2023/03/18 11:15:10;;;;;;;8.85;5.10;;;21.10;77.70;;;;;;5051071;28;20044;-39
2023/03/18 11:17:38;;;;;;;8.55;5.25;;;20.70;79.90;;;;;;5051274;28;20040;-39
2023/03/18 11:20:10;;;;;;;7.35;5.10;;;20.50;81.40;;;;;;5048355;28;20364;-39
2023/03/18 11:22:36;;;;;;;7.50;4.57;;;20.10;82.80;;;;;;5048073;28;20482;-39
2023/03/18 11:25:15;;;;;;;9.25;5.07;;;20.80;82.70;;;;;;5050379;28;20028;-39
2023/03/18 11:27:44;;;;;;;7.53;4.05;;;20.50;82.00;;;;;;5046660;28;20171;-39
2023/03/18 11:30:33;;;;;;;6.57;4.10;;;19.80;82.50;;;;;;5040856;28;20508;-39
2023/03/18 11:33:03;;;;;;;5.97;3.88;;;19.30;83.60;;;;;;5044107;28;20048;-39
2023/03/18 11:35:52;;;;;;;6.27;2.87;;;18.60;85.80;;;;;;5046538;28;20022;-39
2023/03/18 11:38:27;;;;;;;7.63;2.55;;;18.30;85.80;;;;;;5050883;28;20497;-39
2023/03/18 11:41:11;;;;;;;4.28;2.63;;;18.00;87.70;;;;;;5049807;28;20025;-39
2023/03/18 11:43:37;;;;;;;6.68;2.90;;;17.50;89.00;;;;;;5050696;28;20079;-39
2023/03/18 11:46:09;;;;;;;6.20;2.97;;;18.80;87.10;;;;;;5043411;28;20398;-45
2023/03/18 11:48:40;;;;;;;4.78;2.17;;;19.50;83.80;;;;;;5044946;28;20024;-44
2023/03/18 11:51:18;;;;;;;5.10;2.40;;;19.50;82.90;;;;;;5044135;28;20044;-45
2023/03/18 11:54:13;;;;;;;3.40;2.20;;;18.80;84.30;;;;;;5041176;28;20023;-45
2023/03/18 11:57:10;;;;;;;5.72;3.30;;;18.60;85.20;;;;;;5010209;28;20428;-45
2023/03/18 12:00:24;;;;;;;4.82;2.67;;;18.20;86.60;;;;;;5051053;28;20032;-46
2023/03/18 12:03:13;;;;;;;5.47;2.38;;;18.40;86.40;;;;;;5025925;28;20071;-46
2023/03/18 12:05:44;;;;;;;4.25;2.72;;;18.50;88.80;;;;;;5010468;28;20485;-44
2023/03/18 12:08:31;;;;;;;3.60;2.22;;;19.40;85.00;;;;;;5049301;28;20347;-45
2023/03/18 12:11:10;;;;;;;5.53;2.40;;;20.10;81.70;;;;;;5040825;28;20039;-45
2023/03/18 12:14:04;;;;;;;4.80;2.45;;;20.60;81.40;;;;;;5048296;28;20406;-45
2023/03/18 12:16:49;;;;;;;5.45;2.10;;;21.80;80.30;;;;;;5034678;28;20028;-45
2023/03/18 12:19:34;;;;;;;2.80;1.90;;;23.20;75.10;;;;;;5042929;28;20021;-45
2023/03/18 12:22:04;;;;;;;3.45;1.83;;;24.30;72.50;;;;;;5040599;28;20033;-45
2023/03/18 12:24:51;;;;;;;5.13;1.60;;;24.90;72.60;;;;;;5048894;28;20025;-45
2023/03/18 12:27:44;;;;;;;4.65;2.10;;;25.00;67.50;;;;;;5048258;28;20025;-45
2023/03/18 12:30:22;;;;;;;1.70;1.52;;;24.90;70.20;;;;;;5043533;28;20174;-45
2023/03/18 12:32:52;;;;;;;4.07;2.00;;;24.90;66.00;;;;;;5039945;28;20024;-44
2023/03/18 12:35:44;;;;;;;3.80;1.98;;;23.60;66.50;;;;;;5048971;28;20456;-44
2023/03/18 12:38:47;;;;;;;4.07;1.73;;;22.60;71.30;;;;;;5046298;28;20064;-44
2023/03/18 12:41:34;;;;;;;3.28;1.70;;;21.50;73.00;;;;;;5048181;28;20035;-45
2023/03/18 12:44:28;;;;;;;3.72;1.85;;;21.10;73.60;;;;;;5048167;28;20040;-45
2023/03/18 12:47:14;;;;;;;8.05;1.73;;;20.80;74.70;;;;;;5049313;28;20491;-45
2023/03/18 12:49:49;;;;;;;5.72;1.92;;;20.80;76.30;;;;;;5049333;28;20482;-44
2023/03/18 12:52:39;;;;;;;4.93;1.73;;;20.80;77.30;;;;;;5047788;28;20449;-47
2023/03/18 12:55:20;;;;;;;3.28;1.85;;;20.50;77.50;;;;;;5048810;28;20085;-45
2023/03/18 12:57:59;;;;;;;4.35;2.13;;;20.00;78.00;;;;;;5056697;28;20025;-45
2023/03/18 13:00:46;;;;;;;3.03;1.60;;;19.90;78.10;;;;;;5038909;28;20026;-44